Time;durP1;ratioP1;P1;durP2;ratioP2;P2;SDS_P1;SDS_P2;PMS_P1;PMS_P2;Temp;Humidity;BMP_temperature;BMP_pressure;BME280_temperature;BME280_humidity;BME280_pressure;Samples;Min_cycle;Max_cycle;Signal;HPM_P1;HPM_P2
2022/12/21 00:02:09;;;;;;;24.47;14.10;;;;;;;-6.17;95.16;100846.28;4995474;28;20113;-72
2022/12/21 00:04:36;;;;;;;24.13;13.53;;;;;;;-6.07;95.36;100852.84;4996662;28;20034;-70
2022/12/21 00:07:01;;;;;;;26.08;15.07;;;;;;;-6.03;94.95;100859.63;4962365;28;20029;-71
2022/12/21 00:09:27;;;;;;;27.03;14.87;;;;;;;-6.10;95.84;100857.28;4995525;28;20030;-71
2022/12/21 00:11:52;;;;;;;25.63;13.20;;;;;;;-6.13;95.65;100847.88;4995352;28;20141;-72
2022/12/21 00:14:18;;;;;;;26.70;14.60;;;;;;;-6.15;96.78;100849.66;4995975;28;20026;-73
2022/12/21 00:16:43;;;;;;;22.47;12.70;;;;;;;-6.22;97.43;100832.66;4996620;28;20069;-72
2022/12/21 00:19:14;;;;;;;24.60;14.57;;;;;;;-6.10;98.28;100832.19;4964228;28;20057;-71
2022/12/21 00:21:43;;;;;;;22.52;13.27;;;;;;;-6.09;98.46;100833.03;4998859;28;20037;-73
2022/12/21 00:24:08;;;;;;;28.20;16.17;;;;;;;-6.13;98.29;100827.13;5011747;28;20018;-72
2022/12/21 00:26:35;;;;;;;26.23;14.70;;;;;;;-6.25;98.92;100804.25;5018677;28;20030;-70
2022/12/21 00:29:02;;;;;;;29.50;14.88;;;;;;;-5.96;98.95;100840.34;5018593;28;20026;-72
2022/12/21 00:31:39;;;;;;;24.48;13.55;;;;;;;-5.83;98.42;100832.91;5010349;28;20034;-71
2022/12/21 00:34:05;;;;;;;25.67;16.40;;;;;;;-5.79;98.46;100826.69;4997557;28;20034;-72
2022/12/21 00:36:32;;;;;;;22.50;13.33;;;;;;;-5.76;98.36;100825.75;4997590;28;20406;-72
2022/12/21 00:39:23;;;;;;;29.45;14.80;;;;;;;-5.77;98.37;100818.88;4995686;28;20158;-72
2022/12/21 00:41:50;;;;;;;24.77;13.48;;;;;;;-5.77;99.08;100829.25;4994498;28;20070;-70
2022/12/21 00:44:17;;;;;;;27.80;15.00;;;;;;;-5.77;99.47;100818.88;4995035;28;20042;-72
2022/12/21 00:46:44;;;;;;;23.08;13.57;;;;;;;-5.72;98.99;100811.78;4994456;28;20125;-72
2022/12/21 00:49:10;;;;;;;27.80;15.10;;;;;;;-5.77;99.36;100803.31;4994614;28;20110;-71
2022/12/21 00:51:36;;;;;;;27.95;14.40;;;;;;;-5.80;100.00;100785.25;4994324;28;20374;-71
2022/12/21 00:54:03;;;;;;;28.90;15.50;;;;;;;-5.73;100.00;100790.16;4994127;28;20041;-70
2022/12/21 00:56:29;;;;;;;22.55;14.35;;;;;;;-5.63;100.00;100795.84;4995049;28;20034;-72
2022/12/21 00:58:54;;;;;;;28.40;15.73;;;;;;;-5.62;99.90;100787.16;4961970;28;20030;-72
2022/12/21 01:01:26;;;;;;;22.77;15.60;;;;;;;-5.60;100.00;100774.97;4995196;28;20088;-72
2022/12/21 01:03:53;;;;;;;27.75;16.42;;;;;;;-5.57;100.00;100785.22;4994407;28;20054;-71
2022/12/21 01:06:21;;;;;;;28.48;15.25;;;;;;;-5.66;100.00;100770.88;4994329;28;20065;-71
2022/12/21 01:08:49;;;;;;;24.55;15.50;;;;;;;-5.61;100.00;100774.13;4994790;28;20030;-71
2022/12/21 01:11:16;;;;;;;22.13;14.15;;;;;;;-5.58;100.00;100773.16;4977377;28;20034;-73
2022/12/21 01:13:44;;;;;;;24.92;15.20;;;;;;;-5.60;100.00;100782.75;4978406;28;20034;-72
2022/12/21 01:16:19;;;;;;;25.70;15.40;;;;;;;-5.56;100.00;100767.91;4995738;28;20117;-69
2022/12/21 01:18:46;;;;;;;27.15;15.13;;;;;;;-5.65;100.00;100762.19;4978607;28;20030;-70
2022/12/21 01:21:20;;;;;;;25.35;14.70;;;;;;;-5.56;100.00;100771.34;4997906;28;20042;-67
2022/12/21 01:23:47;;;;;;;25.88;13.43;;;;;;;-5.67;100.00;100763.97;4994931;28;20018;-70
2022/12/21 01:26:14;;;;;;;25.45;14.23;;;;;;;-5.58;100.00;100761.94;4994078;28;20045;-71
2022/12/21 01:28:40;;;;;;;26.98;15.10;;;;;;;-5.54;100.00;100760.91;4993579;28;20030;-72
2022/12/21 01:31:05;;;;;;;21.07;13.53;;;;;;;-5.45;100.00;100764.00;4993478;28;20033;-71
2022/12/21 01:33:31;;;;;;;26.30;15.10;;;;;;;-5.40;100.00;100756.03;4993408;28;20052;-71
2022/12/21 01:36:10;;;;;;;23.23;16.33;;;;;;;-5.37;100.00;100751.53;4993150;28;20054;-70
2022/12/21 01:38:39;;;;;;;22.92;13.73;;;;;;;-5.37;100.00;100755.88;4993338;28;20026;-72
2022/12/21 01:41:06;;;;;;;21.48;13.25;;;;;;;-5.39;100.00;100745.56;4993336;28;20125;-71
2022/12/21 01:43:59;;;;;;;24.02;13.68;;;;;;;-5.34;100.00;100746.22;4994360;28;20443;-70
2022/12/21 01:46:37;;;;;;;30.15;16.52;;;;;;;-5.30;100.00;100750.38;4993956;28;20030;-72
2022/12/21 01:49:19;;;;;;;28.48;16.50;;;;;;;-5.25;100.00;100744.16;4993439;28;20054;-70
2022/12/21 01:51:49;;;;;;;24.70;15.25;;;;;;;-5.24;100.00;100745.84;4993628;28;20527;-72
2022/12/21 01:54:25;;;;;;;23.92;14.45;;;;;;;-5.15;100.00;100753.28;4996360;28;20025;-72
2022/12/21 01:56:56;;;;;;;24.77;14.68;;;;;;;-5.19;100.00;100746.53;4994437;28;20049;-70
2022/12/21 01:59:29;;;;;;;25.38;13.82;;;;;;;-5.24;100.00;100740.66;4993975;28;20532;-71
2022/12/21 02:01:57;;;;;;;22.10;14.45;;;;;;;-5.25;100.00;100732.00;4995835;28;20038;-72
2022/12/21 02:04:23;;;;;;;25.30;14.93;;;;;;;-5.23;100.00;100731.94;4994895;28;20428;-72
2022/12/21 02:06:55;;;;;;;28.63;15.93;;;;;;;-5.25;100.00;100733.78;4993792;28;20026;-70
2022/12/21 02:09:23;;;;;;;22.55;14.93;;;;;;;-5.34;100.00;100735.84;4993428;28;20486;-72
2022/12/21 02:11:51;;;;;;;27.63;17.17;;;;;;;-5.39;100.00;100729.16;4993720;28;20034;-71
2022/12/21 02:14:17;;;;;;;24.08;14.18;;;;;;;-5.25;100.00;100733.78;4993942;28;20055;-70
2022/12/21 02:17:30;;;;;;;28.85;14.90;;;;;;;-5.12;100.00;100730.63;4979524;28;20215;-71
2022/12/21 02:20:34;;;;;;;24.52;15.10;;;;;;;-5.09;100.00;100725.28;4976604;28;20026;-71
2022/12/21 02:23:16;;;;;;;24.05;15.73;;;;;;;-5.06;100.00;100721.72;4972570;28;20026;-71
2022/12/21 02:26:19;;;;;;;28.15;15.70;;;;;;;-5.04;100.00;100714.69;4993994;28;20117;-72
2022/12/21 02:28:49;;;;;;;26.67;15.95;;;;;;;-4.98;100.00;100722.22;4994164;28;20034;-71
2022/12/21 02:31:28;;;;;;;24.90;15.77;;;;;;;-5.03;100.00;100721.59;4959781;28;20367;-71
2022/12/21 02:34:18;;;;;;;25.33;15.38;;;;;;;-5.08;100.00;100715.75;4992825;28;20038;-71
2022/12/21 02:37:14;;;;;;;24.13;15.27;;;;;;;-5.06;100.00;100706.13;4975803;28;20048;-71
2022/12/21 02:39:52;;;;;;;21.88;12.75;;;;;;;-4.96;100.00;100717.81;4993152;28;20440;-72
2022/12/21 02:45:53;;;;;;;25.95;15.20;;;;;;;-4.99;100.00;100703.22;4993271;28;20038;-69
2022/12/21 02:48:34;;;;;;;24.83;15.15;;;;;;;-4.96;100.00;100710.03;4975215;28;20061;-72
2022/12/21 02:51:05;;;;;;;23.90;15.30;;;;;;;-4.93;100.00;100711.63;4993118;28;20029;-71
2022/12/21 02:53:38;;;;;;;25.40;15.05;;;;;;;-4.87;100.00;100698.41;4974843;28;20038;-72
2022/12/21 02:56:04;;;;;;;26.15;14.45;;;;;;;-4.92;100.00;100701.19;4993051;28;20081;-69
2022/12/21 02:58:32;;;;;;;26.83;14.48;;;;;;;-4.84;100.00;100701.72;4993517;28;20034;-70
2022/12/21 03:01:46;;;;;;;26.42;16.48;;;;;;;-4.77;100.00;100707.47;4993604;28;20030;-71
2022/12/21 03:04:31;;;;;;;25.90;14.52;;;;;;;-4.77;100.00;100700.53;4975384;28;20383;-71
2022/12/21 03:07:05;;;;;;;26.05;15.07;;;;;;;-4.70;100.00;100691.56;4993009;28;20051;-71
2022/12/21 03:09:43;;;;;;;24.35;13.25;;;;;;;-4.60;100.00;100691.16;4975744;28;20126;-70
2022/12/21 03:12:15;;;;;;;23.40;14.25;;;;;;;-4.52;100.00;100696.84;4992573;28;20030;-71
2022/12/21 03:14:54;;;;;;;23.73;14.80;;;;;;;-4.50;100.00;100693.28;4975001;28;20531;-71
2022/12/21 03:17:29;;;;;;;24.85;14.30;;;;;;;-4.69;100.00;100656.00;4992221;28;20033;-70
2022/12/21 03:20:07;;;;;;;22.10;13.57;;;;;;;-4.53;100.00;100687.38;4975761;28;20066;-70
2022/12/21 03:22:55;;;;;;;20.80;13.93;;;;;;;-4.54;100.00;100683.09;4992183;28;20038;-69
2022/12/21 03:25:26;;;;;;;19.35;12.48;;;;;;;-4.49;100.00;100687.16;4992981;28;20031;-71
2022/12/21 03:27:54;;;;;;;26.63;14.02;;;;;;;-4.47;100.00;100681.88;5000370;28;20034;-70
2022/12/21 03:30:21;;;;;;;24.83;15.10;;;;;;;-4.45;100.00;100682.66;4985542;28;20484;-70
2022/12/21 03:33:06;;;;;;;25.08;14.93;;;;;;;-4.40;100.00;100684.13;5004737;28;20033;-70
2022/12/21 03:35:47;;;;;;;23.98;13.75;;;;;;;-4.46;100.00;100681.81;4986103;28;20018;-70
2022/12/21 03:38:21;;;;;;;26.13;16.13;;;;;;;-4.47;100.00;100671.50;5003493;28;20249;-71
2022/12/21 03:40:51;;;;;;;21.13;14.38;;;;;;;-4.65;100.00;100662.75;5004716;28;20091;-69
2022/12/21 03:43:33;;;;;;;20.77;12.95;;;;;;;-4.65;100.00;100669.72;5002808;28;20030;-72
2022/12/21 03:46:03;;;;;;;21.50;12.27;;;;;;;-4.79;100.00;100659.94;5005702;28;20026;-68
2022/12/21 03:48:49;;;;;;;25.88;14.45;;;;;;;-4.63;100.00;100662.69;5000056;28;20065;-70
2022/12/21 03:51:41;;;;;;;24.65;15.07;;;;;;;-4.63;100.00;100645.34;5007320;28;20111;-70
2022/12/21 03:54:21;;;;;;;25.85;14.75;;;;;;;-4.57;100.00;100655.47;4989287;28;20034;-70
2022/12/21 03:56:48;;;;;;;24.92;15.68;;;;;;;-4.52;100.00;100647.47;4999333;28;20026;-72
2022/12/21 03:59:17;;;;;;;24.30;14.77;;;;;;;-4.51;100.00;100654.34;4999701;28;20042;-73
2022/12/21 04:01:53;;;;;;;24.77;14.38;;;;;;;-4.55;100.00;100629.44;4984058;28;20034;-71
2022/12/21 04:04:31;;;;;;;23.05;14.48;;;;;;;-4.54;100.00;100612.91;4963929;28;20073;-73
2022/12/21 04:07:00;;;;;;;19.83;13.32;;;;;;;-4.65;100.00;100589.16;4996962;28;20370;-71
2022/12/21 04:09:26;;;;;;;28.58;14.10;;;;;;;-4.48;100.00;100617.81;4996184;28;20146;-73
2022/12/21 04:14:39;;;;;;;23.33;14.98;;;;;;;-4.44;100.00;100629.75;4995030;28;20034;-71
2022/12/21 04:17:04;;;;;;;24.75;15.45;;;;;;;-4.47;100.00;100625.56;4995597;28;20069;-71
2022/12/21 04:28:07;;;;;;;22.55;15.00;;;;;;;-4.44;100.00;100616.75;4994879;28;20026;-71
2022/12/21 04:30:32;;;;;;;20.48;13.77;;;;;;;-4.43;100.00;100601.09;4995466;28;20117;-71
2022/12/21 04:32:58;;;;;;;28.42;15.32;;;;;;;-4.55;100.00;100569.66;4994848;28;20034;-70
2022/12/21 04:35:23;;;;;;;30.17;16.57;;;;;;;-4.36;100.00;100581.69;4995449;28;20033;-71
2022/12/21 04:37:49;;;;;;;22.10;13.73;;;;;;;-4.22;100.00;100578.44;4994691;28;20042;-71
2022/12/21 04:40:15;;;;;;;23.15;13.95;;;;;;;-4.22;100.00;100568.03;4994811;28;20120;-71
2022/12/21 04:42:40;;;;;;;26.00;15.00;;;;;;;-4.22;100.00;100570.66;4994528;28;20510;-73
2022/12/21 04:45:07;;;;;;;22.33;13.70;;;;;;;-4.10;100.00;100583.03;4994267;28;20030;-71
2022/12/21 04:47:32;;;;;;;26.42;13.65;;;;;;;-4.10;100.00;100583.03;4994917;28;20120;-72
2022/12/21 04:49:59;;;;;;;21.88;14.13;;;;;;;-4.12;100.00;100576.25;4994232;28;20026;-71
2022/12/21 04:52:24;;;;;;;20.10;11.93;;;;;;;-4.25;100.00;100562.16;4994345;28;20089;-71
2022/12/21 04:54:50;;;;;;;23.70;14.40;;;;;;;-4.26;100.00;100582.13;4994620;28;20455;-70
2022/12/21 04:57:16;;;;;;;22.90;12.73;;;;;;;-4.28;100.00;100570.94;4994297;28;20351;-70
2022/12/21 04:59:42;;;;;;;22.30;13.75;;;;;;;-4.27;100.00;100570.03;4994035;28;20034;-69
2022/12/21 05:02:07;;;;;;;26.17;14.07;;;;;;;-4.21;100.00;100574.94;4994516;28;20437;-71
2022/12/21 05:04:34;;;;;;;21.25;13.45;;;;;;;-4.16;100.00;100572.09;4994086;28;20037;-73
2022/12/21 05:06:59;;;;;;;20.77;13.20;;;;;;;-4.18;100.00;100584.34;4994109;28;20110;-71
2022/12/21 05:09:25;;;;;;;19.77;12.10;;;;;;;-4.17;100.00;100581.66;4977097;28;20104;-70
2022/12/21 05:11:52;;;;;;;22.93;14.37;;;;;;;-4.15;100.00;100579.00;4994019;28;20173;-71
2022/12/21 05:14:17;;;;;;;24.20;15.70;;;;;;;-4.11;100.00;100570.97;4996287;28;20038;-71
2022/12/21 05:16:43;;;;;;;22.60;13.03;;;;;;;-4.14;100.00;100554.66;4994811;28;20041;-70
2022/12/21 05:19:09;;;;;;;25.87;12.47;;;;;;;-4.09;100.00;100543.13;4994245;28;20466;-69
2022/12/21 05:21:34;;;;;;;19.33;13.20;;;;;;;-4.08;100.00;100544.81;4993698;28;20026;-70
2022/12/21 05:23:59;;;;;;;24.63;13.23;;;;;;;-4.06;100.00;100539.53;4976502;28;20026;-71
2022/12/21 05:26:25;;;;;;;22.10;13.30;;;;;;;-4.02;100.00;100537.63;4993941;28;20031;-73
2022/12/21 05:28:51;;;;;;;21.30;13.63;;;;;;;-4.07;100.00;100519.63;4993502;28;20034;-71
2022/12/21 05:31:16;;;;;;;21.13;13.13;;;;;;;-3.85;100.00;100545.44;4976520;28;20034;-74
2022/12/21 05:33:42;;;;;;;21.73;12.33;;;;;;;-3.83;100.00;100539.22;4993747;28;20029;-76
2022/12/21 05:36:12;;;;;;;20.00;12.77;;;;;;;-3.78;100.00;100532.03;4994099;28;20056;-73
2022/12/21 05:38:37;;;;;;;23.42;12.57;;;;;;;-3.89;100.00;100517.88;4993968;28;20084;-73
2022/12/21 05:41:03;;;;;;;23.33;13.53;;;;;;;-3.77;100.00;100527.66;4976217;28;20031;-73
2022/12/21 05:43:30;;;;;;;21.20;13.93;;;;;;;-3.78;100.00;100518.19;4994008;28;20366;-71
2022/12/21 05:46:06;;;;;;;21.30;13.98;;;;;;;-3.74;100.00;100514.53;4993674;28;20256;-73
2022/12/21 05:48:32;;;;;;;26.85;12.57;;;;;;;-3.67;100.00;100508.09;4976266;28;20038;-72
2022/12/21 05:50:58;;;;;;;23.73;14.38;;;;;;;-3.64;100.00;100507.91;4994656;28;20113;-70
2022/12/21 05:53:24;;;;;;;19.13;13.40;;;;;;;-3.72;100.00;100494.47;4994217;28;20100;-71
2022/12/21 05:55:51;;;;;;;24.87;16.33;;;;;;;-3.69;100.00;100501.28;4993312;28;20405;-72
2022/12/21 05:58:19;;;;;;;24.88;14.00;;;;;;;-3.62;100.00;100506.06;4993129;28;20022;-70
2022/12/21 06:00:45;;;;;;;22.67;13.95;;;;;;;-3.58;100.00;100494.59;4992855;28;20109;-70
2022/12/21 06:03:11;;;;;;;25.13;15.30;;;;;;;-3.51;100.00;100498.53;4993342;28;20058;-71
2022/12/21 06:05:36;;;;;;;18.97;13.30;;;;;;;-3.54;100.00;100488.28;4992779;28;20074;-71
2022/12/21 06:08:03;;;;;;;24.40;15.23;;;;;;;-3.52;100.00;100489.06;4992813;28;20134;-71
2022/12/21 06:10:28;;;;;;;21.23;15.02;;;;;;;-3.56;100.00;100489.31;4993060;28;20113;-70
2022/12/21 06:12:54;;;;;;;22.27;14.27;;;;;;;-3.58;100.00;100497.19;4975662;28;20026;-71
2022/12/21 06:15:19;;;;;;;21.80;13.33;;;;;;;-3.59;100.00;100484.25;4993234;28;20076;-71
2022/12/21 06:17:45;;;;;;;24.90;15.43;;;;;;;-3.78;100.00;100450.53;4975510;28;20056;-70
2022/12/21 06:20:11;;;;;;;25.63;15.40;;;;;;;-3.45;100.00;100503.47;4990989;28;20090;-71
2022/12/21 06:22:37;;;;;;;34.00;20.73;;;;;;;-3.52;100.00;100499.47;4992645;28;20109;-72
2022/12/21 06:25:03;;;;;;;30.00;17.47;;;;;;;-3.54;100.00;100501.31;4993299;28;20129;-69
2022/12/21 06:27:29;;;;;;;26.17;15.40;;;;;;;-3.53;100.00;100492.59;4993016;28;20410;-71
2022/12/21 06:29:54;;;;;;;28.00;15.57;;;;;;;-3.57;100.00;100475.44;4992701;28;20033;-71
2022/12/21 06:32:20;;;;;;;26.03;14.93;;;;;;;-3.69;100.00;100467.44;4993354;28;20037;-73
2022/12/21 06:34:45;;;;;;;29.10;16.57;;;;;;;-3.50;100.00;100492.41;4993445;28;20026;-70
2022/12/21 06:37:13;;;;;;;24.67;14.87;;;;;;;-3.49;100.00;100478.47;4992887;28;20064;-71
2022/12/21 06:39:38;;;;;;;23.17;13.85;;;;;;;-3.49;100.00;100470.66;4997976;28;20042;-71
2022/12/21 06:42:04;;;;;;;29.43;17.43;;;;;;;-3.41;100.00;100474.66;4986381;28;20057;-72
2022/12/21 06:44:29;;;;;;;28.60;16.80;;;;;;;-3.30;100.00;100474.91;4994437;28;20044;-72
2022/12/21 06:46:55;;;;;;;31.03;18.20;;;;;;;-3.38;100.00;100456.25;4979240;28;20027;-72
2022/12/21 06:49:20;;;;;;;31.47;16.73;;;;;;;-3.38;100.00;100458.88;4977926;28;20033;-70
2022/12/21 06:51:46;;;;;;;38.57;18.10;;;;;;;-3.30;100.00;100469.72;4982838;28;20037;-71
2022/12/21 06:54:11;;;;;;;27.70;16.77;;;;;;;-3.31;100.00;100457.63;4979192;28;20091;-72
2022/12/21 06:56:37;;;;;;;26.50;15.93;;;;;;;-3.22;100.00;100457.09;4987801;28;20501;-70
2022/12/21 06:59:02;;;;;;;27.53;16.23;;;;;;;-3.24;100.00;100458.94;4976336;28;20553;-72
2022/12/21 07:01:32;;;;;;;20.88;13.85;;;;;;;-3.23;100.00;100460.63;4975096;28;20034;-70
2022/12/21 07:03:59;;;;;;;26.35;15.75;;;;;;;-3.26;100.00;100461.66;4978319;28;20038;-67
2022/12/21 07:06:27;;;;;;;20.35;13.23;;;;;;;-3.30;100.00;100454.09;4974751;28;20065;-73
2022/12/21 07:08:53;;;;;;;20.88;13.65;;;;;;;-3.29;100.00;100451.41;4973050;28;20124;-72
2022/12/21 07:11:21;;;;;;;24.70;13.45;;;;;;;-3.18;100.00;100450.81;4974416;28;20026;-81
2022/12/21 07:13:48;;;;;;;31.02;17.63;;;;;;;-3.16;100.00;100441.19;4964143;28;20091;-77
2022/12/21 07:16:15;;;;;;;23.95;14.68;;;;;;;-3.15;100.00;100429.84;4974198;28;20034;-73
2022/12/21 07:18:41;;;;;;;25.13;14.13;;;;;;;-3.11;100.00;100431.34;4973962;28;20035;-78
2022/12/21 07:21:10;;;;;;;23.33;15.10;;;;;;;-3.03;100.00;100442.16;4976192;28;20031;-74
2022/12/21 07:23:38;;;;;;;25.40;14.80;;;;;;;-3.10;100.00;100430.41;4977050;28;20497;-78
2022/12/21 07:26:26;;;;;;;24.83;15.13;;;;;;;-3.11;100.00;100433.94;4982879;28;20050;-78
2022/12/21 07:29:03;;;;;;;26.58;16.80;;;;;;;-3.24;100.00;100422.50;4968964;28;20042;-78
2022/12/21 07:31:29;;;;;;;25.73;15.23;;;;;;;-3.17;100.00;100423.88;4976697;28;20027;-74
2022/12/21 07:33:55;;;;;;;29.70;16.07;;;;;;;-3.18;100.00;100429.97;4976802;28;20054;-72
2022/12/21 07:36:22;;;;;;;28.93;16.67;;;;;;;-3.24;100.00;100420.72;4983112;28;20042;-78
2022/12/21 07:38:54;;;;;;;27.80;18.33;;;;;;;-3.07;100.00;100440.66;4996463;28;20506;-78
2022/12/21 07:41:22;;;;;;;27.02;15.63;;;;;;;-3.02;100.00;100440.41;4996537;28;20030;-72
2022/12/21 07:43:48;;;;;;;34.38;16.85;;;;;;;-3.05;100.00;100423.19;4978537;28;20378;-73
2022/12/21 07:46:26;;;;;;;32.87;18.60;;;;;;;-3.04;100.00;100432.69;4995276;28;20121;-79
2022/12/21 07:48:52;;;;;;;34.42;18.67;;;;;;;-3.31;100.00;100392.50;4995496;28;20029;-72
2022/12/21 07:51:49;;;;;;;27.57;15.97;;;;;;;-2.95;100.00;100439.13;4995558;28;20034;-78
2022/12/21 07:54:15;;;;;;;24.75;15.15;;;;;;;-2.92;100.00;100425.94;4962448;28;20042;-73
2022/12/21 07:56:43;;;;;;;29.63;18.27;;;;;;;-2.86;100.00;100429.06;4995234;28;20057;-74
2022/12/21 08:02:38;;;;;;;25.20;17.27;;;;;;;-2.89;100.00;100382.34;4996029;28;20041;-77
2022/12/21 08:05:22;;;;;;;33.92;18.67;;;;;;;-2.93;100.00;100359.13;4996009;28;20030;-74
2022/12/21 08:07:48;;;;;;;24.73;15.20;;;;;;;-2.67;100.00;100396.72;4995969;28;20374;-72
2022/12/21 08:10:17;;;;;;;26.50;15.97;;;;;;;-2.66;100.00;100406.22;4994955;28;20026;-74
2022/12/21 08:12:44;;;;;;;27.30;16.23;;;;;;;-2.72;100.00;100393.56;4978314;28;20042;-76
2022/12/21 08:15:10;;;;;;;28.20;17.33;;;;;;;-2.61;100.00;100405.03;4995575;28;20034;-71
2022/12/21 08:17:35;;;;;;;23.57;14.33;;;;;;;-2.59;100.00;100390.16;4996795;28;20033;-76
2022/12/21 08:20:01;;;;;;;24.60;15.00;;;;;;;-2.58;100.00;100393.63;4996456;28;20250;-73
2022/12/21 08:22:29;;;;;;;24.52;15.75;;;;;;;-2.54;100.00;100390.75;4996617;28;20030;-77
2022/12/21 08:24:54;;;;;;;29.50;16.47;;;;;;;-2.50;100.00;100388.78;4995512;28;20026;-73
2022/12/21 08:27:20;;;;;;;25.43;15.27;;;;;;;-2.47;100.00;100378.19;4995135;28;20049;-71
2022/12/21 08:29:45;;;;;;;30.60;15.00;;;;;;;-2.58;100.00;100339.72;4993673;28;20034;-73
2022/12/21 08:32:11;;;;;;;23.87;16.07;;;;;;;-2.36;100.00;100375.78;4994596;28;20484;-70
2022/12/21 08:34:36;;;;;;;21.60;14.67;;;;;;;-2.41;100.00;100362.16;5006088;28;20022;-75
2022/12/21 08:37:03;;;;;;;23.60;15.47;;;;;;;-2.31;100.00;100371.16;5011528;28;20046;-74
2022/12/21 08:39:29;;;;;;;24.10;15.27;;;;;;;-2.27;100.00;100359.59;4996025;28;20034;-69
2022/12/21 08:41:54;;;;;;;25.73;14.60;;;;;;;-2.16;100.00;100368.56;4993719;28;20037;-69
2022/12/21 08:44:20;;;;;;;25.80;15.50;;;;;;;-2.17;100.00;100356.44;4994504;28;20037;-70
2022/12/21 08:46:45;;;;;;;25.83;16.53;;;;;;;-2.16;100.00;100347.69;4994682;28;20023;-68
2022/12/21 08:49:11;;;;;;;25.37;15.17;;;;;;;-2.15;100.00;100363.25;4994359;28;20033;-69
2022/12/21 08:51:40;;;;;;;27.10;15.87;;;;;;;-2.16;100.00;100351.13;4994640;28;20489;-68
2022/12/21 08:54:06;;;;;;;21.15;14.10;;;;;;;-2.20;100.00;100337.44;4994341;28;20033;-69
2022/12/21 08:56:33;;;;;;;27.33;16.52;;;;;;;-2.01;100.00;100354.59;4994701;28;20030;-69
2022/12/21 08:59:03;;;;;;;26.23;17.13;;;;;;;-1.95;100.00;100355.06;4993406;28;20105;-69
2022/12/21 09:01:29;;;;;;;27.42;17.80;;;;;;;-1.98;100.00;100341.38;4976611;28;20026;-68
2022/12/21 09:03:55;;;;;;;26.60;16.33;;;;;;;-1.98;100.00;100344.81;4994360;28;20381;-69
2022/12/21 09:06:21;;;;;;;28.30;17.90;;;;;;;-1.94;100.00;100341.09;4994312;28;20464;-69
2022/12/21 09:08:47;;;;;;;24.53;17.43;;;;;;;-1.83;100.00;100348.25;4994260;28;20030;-70
2022/12/21 09:11:14;;;;;;;29.87;18.53;;;;;;;-1.78;100.00;100332.31;4994106;28;20413;-70
2022/12/21 09:13:40;;;;;;;25.98;16.63;;;;;;;-1.81;100.00;100327.28;4993931;28;20674;-71
2022/12/21 09:16:13;;;;;;;27.13;16.93;;;;;;;-1.73;100.00;100328.50;4993901;28;20129;-67
2022/12/21 09:18:39;;;;;;;26.48;16.90;;;;;;;-1.70;100.00;100314.41;4993847;28;20203;-70
2022/12/21 09:21:04;;;;;;;26.77;16.97;;;;;;;-1.66;100.00;100306.28;4976286;28;20076;-71
2022/12/21 09:23:30;;;;;;;28.03;17.00;;;;;;;-1.71;100.00;100292.69;4994958;28;20474;-74
2022/12/21 09:25:55;;;;;;;31.50;17.33;;;;;;;-1.68;100.00;100297.72;4994031;28;20319;-75
2022/12/21 09:28:21;;;;;;;35.10;18.40;;;;;;;-1.67;100.00;100285.50;4994695;28;20034;-75
2022/12/21 09:30:46;;;;;;;27.07;17.67;;;;;;;-1.61;100.00;100287.72;4994044;28;20030;-71
2022/12/21 09:33:12;;;;;;;26.13;16.60;;;;;;;-1.59;100.00;100272.78;4994469;28;20034;-72
2022/12/21 09:35:40;;;;;;;25.97;15.70;;;;;;;-1.60;100.00;100269.34;4976453;28;20474;-72
2022/12/21 09:38:32;;;;;;;23.05;14.65;;;;;;;-1.51;100.00;100274.91;4993755;28;20112;-72
2022/12/21 09:41:45;;;;;;;24.80;16.03;;;;;;;-1.47;100.00;100276.38;4993630;28;20046;-75
2022/12/21 09:44:34;;;;;;;27.90;16.50;;;;;;;-1.45;100.00;100274.50;4976620;28;20026;-75
2022/12/21 09:47:03;;;;;;;27.00;14.45;;;;;;;-1.50;100.00;100263.53;4993992;28;20053;-76
2022/12/21 09:49:43;;;;;;;25.30;14.15;;;;;;;-1.45;100.00;100258.84;4995094;28;20374;-76
2022/12/21 09:52:21;;;;;;;21.17;13.30;;;;;;;-1.43;100.00;100254.38;4996438;28;20053;-74
2022/12/21 09:55:04;;;;;;;18.83;12.18;;;;;;;-1.38;100.00;100257.53;4976938;28;20026;-75
2022/12/21 09:57:34;;;;;;;27.60;15.10;;;;;;;-1.48;100.00;100238.16;4995616;28;20139;-74
2022/12/21 10:00:01;;;;;;;22.45;12.40;;;;;;;-1.42;100.00;100248.22;4994070;28;20277;-75
2022/12/21 10:02:42;;;;;;;17.20;11.10;;;;;;;-1.37;100.00;100256.59;4995233;28;20056;-76
2022/12/21 10:05:21;;;;;;;18.17;11.48;;;;;;;-1.32;100.00;100254.50;4994231;28;20104;-77
2022/12/21 10:08:12;;;;;;;21.98;12.65;;;;;;;-1.28;100.00;100253.38;4996880;28;20117;-76
2022/12/21 10:11:15;;;;;;;18.83;11.97;;;;;;;-1.31;100.00;100257.03;4996683;28;20261;-77
2022/12/21 10:14:12;;;;;;;20.58;12.02;;;;;;;-1.35;100.00;100249.50;4999402;28;20694;-75
2022/12/21 10:16:41;;;;;;;21.58;13.27;;;;;;;-1.31;100.00;100237.91;4995822;28;20019;-76
2022/12/21 10:19:13;;;;;;;;;;;;;;;-1.22;100.00;100245.13;4994501;28;20026;-76
2022/12/21 10:21:38;;;;;;;26.52;12.32;;;;;;;-1.22;100.00;100234.69;4978780;28;19909;-77
2022/12/21 10:24:13;;;;;;;22.13;13.13;;;;;;;-1.25;100.00;100227.88;4995131;28;20072;-75
2022/12/21 10:26:38;;;;;;;17.25;9.82;;;;;;;-1.25;100.00;100213.97;4994500;28;20061;-76
2022/12/21 10:29:11;;;;;;;20.17;12.40;;;;;;;-1.16;100.00;100228.22;4996561;28;20030;-76
2022/12/21 10:31:47;;;;;;;19.77;11.17;;;;;;;-1.12;100.00;100219.25;4995213;28;20033;-75
2022/12/21 10:34:34;;;;;;;20.67;11.30;;;;;;;-1.05;100.00;100228.34;4995566;28;20257;-77
2022/12/21 10:37:11;;;;;;;17.08;12.23;;;;;;;-1.11;100.00;100206.09;4995027;28;20273;-78
2022/12/21 10:39:37;;;;;;;27.07;13.10;;;;;;;-1.04;100.00;100207.34;4977826;28;20451;-77
2022/12/21 10:42:12;;;;;;;18.67;10.60;;;;;;;-0.95;100.00;100205.88;4980365;28;20353;-76
2022/12/21 10:44:40;;;;;;;19.77;11.33;;;;;;;-0.90;100.00;100209.03;4976551;28;20097;-79
2022/12/21 10:47:24;;;;;;;16.70;10.85;;;;;;;-0.83;100.00;100212.09;4976466;28;20254;-76
2022/12/21 10:49:57;;;;;;;13.90;9.20;;;;;;;-0.81;100.00;100212.81;4974595;28;20031;-76
2022/12/21 10:52:37;;;;;;;18.37;10.23;;;;;;;-0.78;100.00;100208.22;4974703;28;20353;-79
2022/12/21 10:55:05;;;;;;;16.60;9.60;;;;;;;-0.75;100.00;100196.69;4983615;28;20258;-77
2022/12/21 10:57:32;;;;;;;15.93;9.73;;;;;;;-0.73;100.00;100202.66;4985881;28;20304;-79
2022/12/21 11:00:19;;;;;;;19.10;12.10;;;;;;;-0.72;100.00;100197.31;4986761;28;20038;-77
2022/12/21 11:02:46;;;;;;;10.67;9.03;;;;;;;-0.70;100.00;100189.38;4986640;28;20782;-76
2022/12/21 11:05:52;;;;;;;16.10;10.63;;;;;;;-0.64;100.00;100196.78;4985357;28;20266;-77
2022/12/21 11:08:31;;;;;;;16.97;10.67;;;;;;;-0.60;100.00;100194.81;4963772;28;20290;-76
2022/12/21 11:11:25;;;;;;;;;;;;;;;-0.60;100.00;100185.19;4978154;28;20278;-76
2022/12/21 11:14:24;;;;;;;;;;;;;;;;;;;;;
2022/12/21 11:17:00;;;;;;;15.10;9.70;;;;;;;-0.71;100.00;100164.16;4960690;28;20277;-72
2022/12/21 11:19:26;;;;;;;17.17;9.57;;;;;;;-0.59;100.00;100179.00;4960266;28;20270;-75
2022/12/21 11:21:57;;;;;;;14.47;11.07;;;;;;;-0.59;100.00;100165.94;4942853;28;20271;-74
2022/12/21 11:24:30;;;;;;;16.80;10.40;;;;;;;-0.51;100.00;100168.88;4976667;28;20113;-73
2022/12/21 11:27:00;;;;;;;15.20;9.97;;;;;;;-0.47;100.00;100165.09;4976807;28;20258;-78
2022/12/21 11:29:33;;;;;;;13.97;9.33;;;;;;;-0.50;100.00;100149.63;4959037;28;20258;-73
2022/12/21 11:32:05;;;;;;;11.90;8.77;;;;;;;-0.42;100.00;100157.75;4976641;28;20308;-74
2022/12/21 11:34:43;;;;;;;16.30;10.67;;;;;;;-0.45;100.00;100146.69;4986626;28;20273;-73
2022/12/21 11:37:36;;;;;;;16.73;10.50;;;;;;;-0.40;100.00;100149.81;4996015;28;20331;-76
2022/12/21 11:40:11;;;;;;;15.90;10.20;;;;;;;-0.37;100.00;100141.72;4995840;28;20281;-77
2022/12/21 11:43:14;;;;;;;10.10;8.67;;;;;;;-0.38;100.00;100138.28;4996334;28;20272;-75